Time;durP1;ratioP1;P1;durP2;ratioP2;P2;SDS_P1;SDS_P2;PMS_P1;PMS_P2;Temp;Humidity;BMP_temperature;BMP_pressure;BME280_temperature;BME280_humidity;BME280_pressure;Samples;Min_cycle;Max_cycle;Signal;HPM_P1;HPM_P2
2022/12/01 00:01:29;;;;;;;72.27;18.13;;;4.10;99.90;;;;;;4131713;28;20249;-91
2022/12/01 00:03:31;;;;;;;85.83;21.20;;;3.90;99.90;;;;;;4115716;28;20181;-92
2022/12/01 00:05:32;;;;;;;51.33;19.97;;;3.90;99.90;;;;;;4115829;28;20746;-91
2022/12/01 00:07:32;;;;;;;82.80;17.33;;;3.80;99.90;;;;;;4132201;28;20177;-91
2022/12/01 00:11:52;;;;;;;167.73;21.77;;;3.80;99.90;;;;;;4131995;28;20190;-91
2022/12/01 00:13:53;;;;;;;135.40;18.17;;;3.90;99.90;;;;;;4131802;28;20188;-90
2022/12/01 00:15:54;;;;;;;146.23;20.03;;;3.70;99.90;;;;;;4115748;28;20718;-91
2022/12/01 00:17:56;;;;;;;104.50;19.43;;;3.90;99.90;;;;;;4132697;28;20182;-91
2022/12/01 00:19:57;;;;;;;142.87;21.47;;;3.90;99.90;;;;;;4135155;28;20185;-91
2022/12/01 00:21:57;;;;;;;94.30;19.27;;;4.10;99.90;;;;;;4136956;28;20708;-89
2022/12/01 00:23:58;;;;;;;76.07;18.63;;;4.00;99.90;;;;;;4154188;28;20217;-91
2022/12/01 00:26:04;;;;;;;132.47;21.60;;;3.90;99.90;;;;;;4121975;28;20174;-91
2022/12/01 00:28:05;;;;;;;64.13;20.13;;;4.00;99.90;;;;;;4119150;28;20234;-90
2022/12/01 00:30:08;;;;;;;64.00;18.83;;;4.10;99.90;;;;;;4118914;28;20182;-91
2022/12/01 00:32:09;;;;;;;56.80;20.13;;;4.20;99.90;;;;;;4135268;28;20178;-92
2022/12/01 00:34:21;;;;;;;55.13;21.07;;;4.10;99.90;;;;;;4134884;28;20563;-91
2022/12/01 00:36:23;;;;;;;56.33;20.03;;;4.40;99.90;;;;;;4135067;28;20169;-92
2022/12/01 00:38:23;;;;;;;51.57;20.43;;;4.40;99.90;;;;;;4118936;28;20258;-91
2022/12/01 00:40:24;;;;;;;51.03;18.23;;;4.30;99.90;;;;;;4135043;28;20174;-90
2022/12/01 00:42:25;;;;;;;51.47;23.77;;;4.30;99.90;;;;;;4134757;28;20213;-90
2022/12/01 00:44:26;;;;;;;54.80;25.83;;;4.80;99.90;;;;;;4134777;28;20197;-91
2022/12/01 00:46:27;;;;;;;62.07;27.60;;;5.50;99.90;;;;;;4134993;28;20181;-90
2022/12/01 00:48:28;;;;;;;63.87;27.87;;;6.00;99.90;;;;;;4134616;28;20173;-91
2022/12/01 00:50:29;;;;;;;64.93;30.13;;;6.30;99.90;;;;;;4134730;28;20232;-90
2022/12/01 00:52:30;;;;;;;69.43;29.67;;;6.30;99.90;;;;;;4134678;28;20177;-91
2022/12/01 00:54:31;;;;;;;65.90;30.07;;;6.30;99.90;;;;;;4118535;28;20278;-91
2022/12/01 00:56:31;;;;;;;62.20;27.77;;;6.30;99.90;;;;;;4134598;28;20561;-92
2022/12/01 00:58:33;;;;;;;73.00;29.87;;;6.20;99.90;;;;;;4134607;28;20209;-90
2022/12/01 01:00:37;;;;;;;54.87;24.87;;;6.20;99.90;;;;;;4134436;28;20173;-90
2022/12/01 01:02:39;;;;;;;52.83;25.30;;;5.90;99.90;;;;;;4134340;28;20214;-90
2022/12/01 01:04:39;;;;;;;67.87;25.20;;;5.70;99.90;;;;;;4118051;28;20186;-91
2022/12/01 01:06:42;;;;;;;80.07;23.33;;;5.60;99.90;;;;;;4134340;28;20665;-90
2022/12/01 01:08:42;;;;;;;91.03;23.27;;;5.50;99.90;;;;;;4118275;28;20174;-90
2022/12/01 01:10:45;;;;;;;75.47;25.10;;;5.10;99.90;;;;;;4134019;28;20214;-89
2022/12/01 01:12:46;;;;;;;70.37;22.23;;;5.10;99.90;;;;;;4118234;28;20178;-90
2022/12/01 01:14:47;;;;;;;88.90;26.27;;;5.20;99.90;;;;;;4133902;28;20213;-92
2022/12/01 01:16:48;;;;;;;68.97;25.97;;;5.20;99.90;;;;;;4118091;28;20610;-90
2022/12/01 01:18:49;;;;;;;62.10;25.07;;;5.30;99.90;;;;;;4134202;28;20177;-90
2022/12/01 01:21:04;;;;;;;60.23;25.50;;;5.30;99.90;;;;;;4150447;28;20717;-91
2022/12/01 01:23:05;;;;;;;59.87;26.70;;;5.50;99.90;;;;;;4117903;28;20221;-91
2022/12/01 01:25:06;;;;;;;58.47;25.17;;;5.50;99.90;;;;;;4133920;28;20201;-91
2022/12/01 01:27:07;;;;;;;55.90;24.40;;;5.40;99.90;;;;;;4133955;28;20181;-91
2022/12/01 01:29:07;;;;;;;58.43;25.03;;;5.30;99.90;;;;;;4134068;28;20193;-91
2022/12/01 01:31:10;;;;;;;56.97;27.43;;;5.50;99.90;;;;;;4117314;28;20167;-91
2022/12/01 01:33:11;;;;;;;63.63;27.53;;;5.90;99.90;;;;;;4117740;28;20170;-90
2022/12/01 01:35:12;;;;;;;63.67;26.93;;;6.00;99.90;;;;;;4133827;28;20193;-91
2022/12/01 01:37:13;;;;;;;68.40;28.47;;;6.20;99.90;;;;;;4117680;28;20174;-90
2022/12/01 01:39:15;;;;;;;72.47;30.13;;;6.40;99.90;;;;;;4117707;28;20175;-90
2022/12/01 01:41:17;;;;;;;74.40;32.20;;;6.30;99.90;;;;;;4133768;28;20267;-90
2022/12/01 01:43:45;;;;;;;78.83;32.83;;;6.10;99.90;;;;;;4134064;28;20650;-90
2022/12/01 01:45:45;;;;;;;84.13;34.80;;;6.10;99.90;;;;;;4102933;28;20179;-90
2022/12/01 01:47:48;;;;;;;90.67;36.10;;;6.00;99.90;;;;;;4133966;28;20174;-89
2022/12/01 01:49:49;;;;;;;90.83;35.10;;;6.00;99.90;;;;;;4117705;28;20179;-88
2022/12/01 01:51:52;;;;;;;106.90;38.77;;;5.80;99.90;;;;;;4149845;28;20169;-91
2022/12/01 01:53:59;;;;;;;98.90;38.53;;;5.70;99.90;;;;;;4133438;28;20643;-89
2022/12/01 01:56:02;;;;;;;106.87;40.10;;;5.60;99.90;;;;;;4133867;28;20256;-89
2022/12/01 01:58:06;;;;;;;107.30;38.93;;;5.50;99.90;;;;;;4133841;28;20264;-89
2022/12/01 02:00:10;;;;;;;113.00;39.93;;;5.40;99.90;;;;;;4133846;28;20313;-91
2022/12/01 02:02:14;;;;;;;118.57;41.03;;;5.50;99.90;;;;;;4134155;28;20220;-90
2022/12/01 02:04:15;;;;;;;106.43;39.03;;;5.50;99.90;;;;;;4117335;28;20202;-92
2022/12/01 02:06:16;;;;;;;124.87;44.73;;;5.50;99.90;;;;;;4133416;28;20662;-90
2022/12/01 02:08:17;;;;;;;125.40;44.13;;;5.50;99.90;;;;;;4133776;28;20182;-89
2022/12/01 02:10:21;;;;;;;110.47;39.83;;;5.50;99.90;;;;;;4117451;28;20289;-90
2022/12/01 02:12:46;;;;;;;109.57;37.50;;;5.60;99.90;;;;;;4117502;28;20182;-89
2022/12/01 02:15:08;;;;;;;112.20;40.93;;;5.60;99.90;;;;;;4117275;28;20225;-89
2022/12/01 02:17:40;;;;;;;112.00;39.73;;;5.70;99.90;;;;;;4133227;28;20184;-89
2022/12/01 02:20:14;;;;;;;106.10;38.53;;;5.80;99.90;;;;;;4133252;28;20186;-88
2022/12/01 02:22:33;;;;;;;108.03;39.60;;;5.80;99.90;;;;;;4116989;28;20217;-90
2022/12/01 02:24:37;;;;;;;111.60;40.60;;;5.80;99.90;;;;;;4133008;28;20236;-91
2022/12/01 02:26:45;;;;;;;114.67;39.90;;;6.00;99.90;;;;;;4133320;28;20267;-89
2022/12/01 02:29:21;;;;;;;104.17;39.23;;;6.00;99.90;;;;;;4117067;28;20177;-90
2022/12/01 02:31:22;;;;;;;112.27;40.53;;;6.10;99.90;;;;;;4133104;28;20184;-90
2022/12/01 02:33:39;;;;;;;117.63;41.37;;;6.10;99.90;;;;;;4133192;28;20208;-91
2022/12/01 02:36:09;;;;;;;115.13;39.47;;;6.00;99.90;;;;;;4133586;28;20216;-91
2022/12/01 02:38:13;;;;;;;112.20;41.53;;;5.90;99.90;;;;;;4134459;28;20213;-91
2022/12/01 02:40:24;;;;;;;109.33;39.77;;;5.90;99.90;;;;;;4123196;28;20274;-89
2022/12/01 02:42:55;;;;;;;116.30;40.30;;;5.90;99.90;;;;;;4116250;28;20213;-89
2022/12/01 02:44:57;;;;;;;109.83;38.83;;;5.90;99.90;;;;;;4132922;28;20200;-91
2022/12/01 02:47:09;;;;;;;119.30;39.97;;;5.90;99.90;;;;;;4149292;28;20570;-87
2022/12/01 02:49:15;;;;;;;110.17;40.13;;;5.80;99.90;;;;;;4149095;28;20230;-87
2022/12/01 02:51:24;;;;;;;119.07;41.83;;;5.60;99.90;;;;;;4132851;28;20174;-93
2022/12/01 02:53:24;;;;;;;114.67;38.00;;;5.50;99.90;;;;;;4132745;28;20177;-88
2022/12/01 02:55:25;;;;;;;110.97;38.83;;;5.50;99.90;;;;;;4132724;28;20684;-91
2022/12/01 02:57:29;;;;;;;112.23;39.50;;;5.50;99.90;;;;;;4132635;28;20177;-90
2022/12/01 02:59:30;;;;;;;109.93;38.63;;;5.50;99.90;;;;;;4116295;28;20178;-91
2022/12/01 03:01:49;;;;;;;101.53;40.10;;;5.60;99.90;;;;;;4132575;28;20209;-91
2022/12/01 03:03:50;;;;;;;100.17;38.80;;;5.70;99.90;;;;;;4116561;28;20178;-90
2022/12/01 03:06:01;;;;;;;109.13;40.33;;;5.70;99.90;;;;;;4132619;28;20181;-90
2022/12/01 03:08:18;;;;;;;108.57;40.87;;;5.70;99.90;;;;;;4116389;28;20181;-92
2022/12/01 03:10:38;;;;;;;106.53;41.20;;;5.80;99.90;;;;;;4132278;28;20645;-93
2022/12/01 03:12:49;;;;;;;112.13;41.93;;;5.90;99.90;;;;;;4132674;28;20268;-91
2022/12/01 03:15:27;;;;;;;105.67;41.27;;;5.90;99.90;;;;;;4132445;28;20253;-92
2022/12/01 03:18:00;;;;;;;110.63;39.83;;;5.90;99.90;;;;;;4126449;28;20204;-91
2022/12/01 03:20:13;;;;;;;113.03;40.13;;;5.80;99.90;;;;;;4094114;28;20535;-90
2022/12/01 03:22:22;;;;;;;106.67;38.23;;;5.80;99.90;;;;;;4116218;28;20563;-91
2022/12/01 03:24:26;;;;;;;112.10;40.33;;;5.80;99.90;;;;;;4132394;28;20193;-91
2022/12/01 03:26:30;;;;;;;108.27;40.67;;;5.80;99.90;;;;;;4132556;28;20276;-90
2022/12/01 03:28:43;;;;;;;108.80;39.53;;;5.80;99.90;;;;;;4132362;28;20182;-92
2022/12/01 03:30:46;;;;;;;100.40;38.17;;;5.90;99.90;;;;;;4132361;28;20260;-91
2022/12/01 03:32:53;;;;;;;109.90;43.00;;;5.90;99.90;;;;;;4116346;28;20189;-90
2022/12/01 03:34:59;;;;;;;104.57;39.17;;;5.70;99.90;;;;;;4132290;28;20193;-91
2022/12/01 03:37:08;;;;;;;103.73;38.87;;;5.70;99.90;;;;;;4132326;28;20205;-91
2022/12/01 03:39:14;;;;;;;96.60;37.97;;;5.80;99.90;;;;;;4132285;28;20196;-91
2022/12/01 03:41:20;;;;;;;99.20;39.23;;;6.10;99.90;;;;;;4116422;28;20213;-92
2022/12/01 03:43:27;;;;;;;97.93;37.73;;;6.30;99.90;;;;;;4132302;28;20213;-91
2022/12/01 03:45:37;;;;;;;100.43;37.70;;;6.30;99.90;;;;;;4132022;28;20356;-92
2022/12/01 03:47:39;;;;;;;94.50;36.17;;;6.10;99.90;;;;;;4132168;28;20177;-92
2022/12/01 03:49:41;;;;;;;87.77;36.13;;;6.00;99.90;;;;;;4132263;28;20240;-91
2022/12/01 03:52:27;;;;;;;97.13;37.70;;;6.00;99.90;;;;;;4115770;28;20202;-91
2022/12/01 03:54:51;;;;;;;79.77;33.93;;;5.80;99.90;;;;;;4096311;28;20208;-91
2022/12/01 03:56:55;;;;;;;80.77;30.87;;;5.60;99.90;;;;;;4115935;28;20189;-91
2022/12/01 03:58:58;;;;;;;88.27;35.60;;;5.50;99.90;;;;;;4147962;28;20177;-91
2022/12/01 04:01:01;;;;;;;88.67;36.87;;;5.60;99.90;;;;;;4131801;28;20177;-92
2022/12/01 04:03:03;;;;;;;86.43;33.63;;;5.70;99.90;;;;;;4115907;28;20205;-90
2022/12/01 04:05:05;;;;;;;88.07;34.77;;;5.90;99.90;;;;;;4131782;28;20208;-90
2022/12/01 04:07:05;;;;;;;87.37;34.97;;;6.10;99.90;;;;;;4116050;28;20186;-91
2022/12/01 04:09:06;;;;;;;87.47;35.90;;;6.30;99.90;;;;;;4131919;28;20185;-91
2022/12/01 04:13:26;;;;;;;76.77;34.13;;;6.30;99.90;;;;;;4132008;28;20173;-91
2022/12/01 04:15:28;;;;;;;83.77;35.70;;;6.30;99.90;;;;;;4115839;28;20202;-90
2022/12/01 04:17:29;;;;;;;83.83;35.87;;;6.30;99.90;;;;;;4131858;28;20181;-91
2022/12/01 04:19:30;;;;;;;72.93;31.17;;;6.20;99.90;;;;;;4131644;28;20169;-91
2022/12/01 04:21:30;;;;;;;86.13;34.63;;;6.20;99.90;;;;;;4115763;28;20213;-92
2022/12/01 04:25:57;;;;;;;79.17;33.87;;;6.10;99.90;;;;;;4132050;28;20189;-91
2022/12/01 04:27:58;;;;;;;87.13;34.67;;;6.00;99.90;;;;;;4131929;28;20178;-91
2022/12/01 04:29:59;;;;;;;90.90;34.70;;;5.90;99.90;;;;;;4115872;28;20223;-93
2022/12/01 04:31:59;;;;;;;85.47;35.40;;;5.90;99.90;;;;;;4131920;28;20225;-92
2022/12/01 04:34:00;;;;;;;89.67;36.50;;;6.00;99.90;;;;;;4131559;28;20642;-92
2022/12/01 04:36:01;;;;;;;85.43;35.73;;;6.10;99.90;;;;;;4131787;28;20604;-91
2022/12/01 04:38:02;;;;;;;80.83;34.70;;;6.10;99.90;;;;;;4131787;28;20269;-92
2022/12/01 04:40:04;;;;;;;79.10;34.27;;;6.30;99.90;;;;;;4131733;28;20177;-91
2022/12/01 04:42:05;;;;;;;84.13;34.60;;;6.30;99.90;;;;;;4115387;28;20221;-93
2022/12/01 04:44:06;;;;;;;79.27;32.70;;;6.30;99.90;;;;;;4131485;28;20660;-91
2022/12/01 04:46:07;;;;;;;88.33;32.27;;;6.20;99.90;;;;;;4115448;28;20270;-90
2022/12/01 04:48:08;;;;;;;80.00;33.37;;;6.10;99.90;;;;;;4119458;28;20287;-90
2022/12/01 04:50:09;;;;;;;79.77;32.33;;;6.00;99.90;;;;;;4125408;28;20238;-92
2022/12/01 04:52:10;;;;;;;72.53;30.30;;;6.00;99.90;;;;;;4131984;28;20174;-90
2022/12/01 04:54:11;;;;;;;73.27;29.83;;;6.00;99.90;;;;;;4131823;28;20224;-90
2022/12/01 04:56:12;;;;;;;70.97;31.27;;;6.00;99.90;;;;;;4116019;28;20171;-90
2022/12/01 04:58:12;;;;;;;78.07;30.53;;;6.00;99.90;;;;;;4131465;28;20308;-91
2022/12/01 05:00:13;;;;;;;65.33;27.03;;;6.00;99.90;;;;;;4115550;28;20178;-91
2022/12/01 05:02:14;;;;;;;70.83;26.87;;;6.00;99.90;;;;;;4131729;28;20626;-90
2022/12/01 05:04:15;;;;;;;65.50;29.93;;;6.00;99.90;;;;;;4131348;28;20193;-90
2022/12/01 05:06:19;;;;;;;71.20;28.97;;;6.00;99.90;;;;;;4133860;28;20269;-91
2022/12/01 05:08:19;;;;;;;71.07;29.17;;;5.90;99.90;;;;;;4134585;28;20204;-92
2022/12/01 05:10:20;;;;;;;69.23;28.33;;;5.90;99.90;;;;;;4118363;28;20236;-90
2022/12/01 05:12:21;;;;;;;71.50;27.77;;;5.90;99.90;;;;;;4134466;28;20193;-92
2022/12/01 05:14:22;;;;;;;71.80;27.40;;;5.90;99.90;;;;;;4118020;28;20196;-92
2022/12/01 05:16:28;;;;;;;64.77;27.50;;;5.90;99.90;;;;;;4134205;28;20181;-91
2022/12/01 05:18:28;;;;;;;65.50;28.53;;;5.90;99.90;;;;;;4134244;28;20180;-91
2022/12/01 05:22:48;;;;;;;71.17;29.50;;;6.00;99.90;;;;;;4150400;28;20243;-91
2022/12/01 05:24:49;;;;;;;76.40;29.37;;;6.10;99.90;;;;;;4118012;28;20183;-91
2022/12/01 05:26:49;;;;;;;70.80;28.43;;;6.20;99.90;;;;;;4150392;28;20685;-90
2022/12/01 05:28:50;;;;;;;73.37;28.87;;;6.40;99.90;;;;;;4134292;28;20197;-91
2022/12/01 05:30:52;;;;;;;71.27;30.47;;;6.50;99.90;;;;;;4117834;28;20212;-89
2022/12/01 05:32:52;;;;;;;68.87;29.63;;;6.50;99.90;;;;;;4133988;28;20176;-91
2022/12/01 05:34:53;;;;;;;73.50;30.13;;;6.60;99.90;;;;;;4133910;28;20189;-90
2022/12/01 05:36:54;;;;;;;71.73;28.63;;;6.40;99.90;;;;;;4133816;28;20308;-90
2022/12/01 05:38:54;;;;;;;70.50;28.63;;;6.40;99.90;;;;;;4134081;28;20165;-90
2022/12/01 05:40:55;;;;;;;70.13;28.73;;;6.50;99.90;;;;;;4133970;28;20192;-90
2022/12/01 05:42:57;;;;;;;63.13;27.90;;;6.60;99.90;;;;;;4133916;28;20315;-90
2022/12/01 05:44:57;;;;;;;65.57;27.53;;;6.60;99.90;;;;;;4117602;28;20198;-91
2022/12/01 05:46:58;;;;;;;71.23;27.00;;;6.60;99.90;;;;;;4133799;28;20186;-90
2022/12/01 05:48:59;;;;;;;66.80;27.27;;;6.70;99.90;;;;;;4133790;28;20673;-90
2022/12/01 05:51:06;;;;;;;61.97;26.43;;;6.70;99.90;;;;;;4133878;28;20222;-91
2022/12/01 05:53:07;;;;;;;66.67;26.20;;;6.70;99.90;;;;;;4134045;28;20216;-91
2022/12/01 05:55:08;;;;;;;68.10;27.47;;;6.70;99.90;;;;;;4133670;28;20190;-89
2022/12/01 05:57:09;;;;;;;67.70;27.77;;;6.70;99.90;;;;;;4133572;28;20177;-91
2022/12/01 05:59:09;;;;;;;64.53;25.37;;;6.70;99.90;;;;;;4133696;28;20256;-89
2022/12/01 06:01:10;;;;;;;73.97;27.47;;;6.70;99.90;;;;;;4149685;28;20180;-91
2022/12/01 06:03:11;;;;;;;64.60;25.97;;;6.70;99.90;;;;;;4117505;28;20178;-90
2022/12/01 06:05:11;;;;;;;60.57;26.80;;;6.70;99.90;;;;;;4133486;28;20666;-90
2022/12/01 06:07:12;;;;;;;64.70;25.63;;;6.90;99.90;;;;;;4133593;28;20182;-89
2022/12/01 06:09:13;;;;;;;64.83;26.70;;;6.90;99.90;;;;;;4117235;28;20210;-91
2022/12/01 06:11:13;;;;;;;65.70;26.53;;;7.00;99.90;;;;;;4117265;28;20196;-90
2022/12/01 06:13:14;;;;;;;60.83;27.10;;;7.10;99.90;;;;;;4133554;28;20264;-90
2022/12/01 06:15:15;;;;;;;60.67;26.27;;;6.90;99.90;;;;;;4133420;28;20232;-90
2022/12/01 06:17:16;;;;;;;65.50;26.80;;;6.80;99.90;;;;;;4117143;28;20185;-91
2022/12/01 06:19:16;;;;;;;67.43;27.00;;;6.90;99.90;;;;;;4133107;28;20169;-90
2022/12/01 06:21:17;;;;;;;70.27;27.20;;;6.80;99.90;;;;;;4142712;23;20355;-90
2022/12/01 06:23:18;;;;;;;68.70;28.07;;;6.80;99.90;;;;;;4165558;28;20555;-88
2022/12/01 06:25:18;;;;;;;63.67;26.27;;;6.70;99.90;;;;;;4165768;28;20203;-88
2022/12/01 06:27:19;;;;;;;63.93;26.10;;;6.80;99.90;;;;;;4165907;28;20180;-88
2022/12/01 06:29:20;;;;;;;58.63;25.63;;;6.90;99.90;;;;;;4166633;28;20617;-88
2022/12/01 06:31:21;;;;;;;58.13;25.87;;;6.90;99.90;;;;;;4149200;28;20184;-87
2022/12/01 06:33:21;;;;;;;57.17;24.90;;;6.90;99.90;;;;;;4165672;28;20174;-92
2022/12/01 06:35:22;;;;;;;62.40;25.53;;;6.80;99.90;;;;;;4165502;28;20192;-87
2022/12/01 06:37:23;;;;;;;62.93;25.57;;;6.70;99.90;;;;;;4148854;28;20165;-87
2022/12/01 06:39:23;;;;;;;71.60;26.93;;;6.80;99.90;;;;;;4149023;28;20173;-89
2022/12/01 06:41:24;;;;;;;63.07;25.90;;;6.70;99.90;;;;;;4165166;28;20592;-91
2022/12/01 06:43:25;;;;;;;76.83;27.13;;;6.70;99.90;;;;;;4149178;28;20240;-91
2022/12/01 06:45:26;;;;;;;64.73;26.27;;;6.60;99.90;;;;;;4165383;28;20222;-88
2022/12/01 06:47:27;;;;;;;63.80;24.43;;;6.50;99.90;;;;;;4148953;28;20169;-88
2022/12/01 06:49:27;;;;;;;69.37;27.63;;;6.50;99.90;;;;;;4165479;28;20200;-88
2022/12/01 06:51:29;;;;;;;73.47;27.70;;;6.50;99.90;;;;;;4165344;28;20184;-90
2022/12/01 06:53:30;;;;;;;70.70;29.37;;;6.50;99.90;;;;;;4148958;28;20177;-87
2022/12/01 06:55:30;;;;;;;75.23;28.27;;;6.40;99.90;;;;;;4165038;28;20239;-87
2022/12/01 06:57:31;;;;;;;69.93;27.37;;;6.50;99.90;;;;;;4165216;28;20169;-89
2022/12/01 06:59:32;;;;;;;76.93;30.47;;;6.40;99.90;;;;;;4148644;28;20254;-87
2022/12/01 07:01:32;;;;;;;77.40;28.97;;;6.40;99.90;;;;;;4165286;28;20207;-88
2022/12/01 07:03:34;;;;;;;72.30;28.27;;;6.40;99.90;;;;;;4148854;28;20169;-88
2022/12/01 07:05:34;;;;;;;75.37;28.97;;;6.40;99.90;;;;;;4165165;28;20656;-92
2022/12/01 07:07:37;;;;;;;72.27;27.80;;;6.40;99.90;;;;;;4148714;28;20172;-91
2022/12/01 07:09:38;;;;;;;71.77;28.90;;;6.30;99.90;;;;;;4148765;28;20177;-88
2022/12/01 07:11:39;;;;;;;87.93;31.50;;;6.30;99.90;;;;;;4148889;28;20616;-91
2022/12/01 07:13:41;;;;;;;71.00;28.80;;;6.40;99.90;;;;;;4164968;28;20168;-88
2022/12/01 07:15:42;;;;;;;70.77;29.80;;;6.50;99.90;;;;;;4164882;28;20172;-91
2022/12/01 07:17:43;;;;;;;75.13;29.63;;;6.40;99.90;;;;;;4164893;28;20168;-88
2022/12/01 07:19:43;;;;;;;73.13;31.33;;;6.50;99.90;;;;;;4148786;28;20583;-89
2022/12/01 07:21:44;;;;;;;80.73;30.43;;;6.50;99.90;;;;;;4164972;28;20212;-91
2022/12/01 07:23:45;;;;;;;85.13;32.97;;;6.70;99.90;;;;;;4164694;28;20184;-91
2022/12/01 07:25:46;;;;;;;83.57;32.03;;;6.70;99.90;;;;;;4164944;28;20758;-90
2022/12/01 07:27:46;;;;;;;77.23;30.53;;;6.70;99.90;;;;;;4164356;28;20176;-88
2022/12/01 07:29:47;;;;;;;73.50;29.30;;;6.70;99.90;;;;;;4148615;28;20749;-87
2022/12/01 07:31:48;;;;;;;74.27;29.43;;;6.70;99.90;;;;;;4148425;28;20164;-91
2022/12/01 07:33:48;;;;;;;72.80;28.27;;;6.70;99.90;;;;;;4181034;28;20168;-88
2022/12/01 07:35:52;;;;;;;61.60;26.60;;;6.60;99.90;;;;;;4148558;28;20271;-89
2022/12/01 07:37:54;;;;;;;75.27;29.77;;;6.60;99.90;;;;;;4164903;28;20249;-89
2022/12/01 07:39:55;;;;;;;72.43;28.93;;;6.60;99.90;;;;;;4164823;28;20199;-88
2022/12/01 07:41:55;;;;;;;69.90;29.23;;;6.60;99.90;;;;;;4148483;28;20303;-88
2022/12/01 07:43:58;;;;;;;70.50;28.63;;;6.60;99.90;;;;;;4164711;28;20203;-88
2022/12/01 07:46:09;;;;;;;71.73;27.60;;;6.30;99.90;;;;;;4164931;28;20179;-88
2022/12/01 07:48:10;;;;;;;68.03;27.23;;;6.40;99.90;;;;;;4148319;28;20638;-88
2022/12/01 07:50:11;;;;;;;71.43;27.07;;;6.70;99.90;;;;;;4148440;28;20179;-88
2022/12/01 07:52:11;;;;;;;66.50;27.10;;;6.60;99.90;;;;;;4164488;28;20199;-88
2022/12/01 07:54:16;;;;;;;70.90;28.03;;;6.70;99.90;;;;;;4164527;28;20273;-88
2022/12/01 07:56:18;;;;;;;75.00;28.60;;;6.70;99.90;;;;;;4148261;28;20236;-88
2022/12/01 07:58:19;;;;;;;70.10;26.73;;;6.70;99.90;;;;;;4148289;28;20173;-88
2022/12/01 08:00:20;;;;;;;69.20;29.17;;;6.90;99.90;;;;;;4164632;28;20673;-88
2022/12/01 08:02:20;;;;;;;67.60;29.17;;;6.90;99.90;;;;;;4164278;28;20632;-91
2022/12/01 08:04:21;;;;;;;69.83;28.83;;;6.90;99.90;;;;;;4148045;28;20196;-91
2022/12/01 08:06:22;;;;;;;76.80;32.03;;;6.80;99.90;;;;;;4164502;28;20183;-90
2022/12/01 08:08:24;;;;;;;83.00;32.37;;;6.80;99.90;;;;;;4148136;28;20180;-91
2022/12/01 08:10:25;;;;;;;85.87;34.73;;;6.80;99.90;;;;;;4148194;28;20204;-88
2022/12/01 08:12:25;;;;;;;91.00;35.53;;;6.80;99.90;;;;;;4164516;28;20184;-88
2022/12/01 08:14:26;;;;;;;86.40;34.10;;;6.80;99.90;;;;;;4164447;28;20199;-91
2022/12/01 08:16:27;;;;;;;90.63;34.40;;;6.80;99.90;;;;;;4148160;28;20193;-88
2022/12/01 08:18:27;;;;;;;88.07;33.33;;;6.80;99.90;;;;;;4148366;28;20181;-89
2022/12/01 08:20:28;;;;;;;93.10;35.27;;;6.80;99.90;;;;;;4148185;28;20638;-88
2022/12/01 08:22:28;;;;;;;85.03;31.93;;;6.90;99.90;;;;;;4164278;28;20223;-88
2022/12/01 08:24:29;;;;;;;85.90;32.07;;;6.90;99.90;;;;;;4164390;28;20196;-88
2022/12/01 08:26:30;;;;;;;92.10;36.50;;;7.00;99.90;;;;;;4164511;28;20649;-88
2022/12/01 08:28:31;;;;;;;84.33;33.67;;;7.00;99.90;;;;;;4147767;28;20256;-91
2022/12/01 08:30:32;;;;;;;96.37;36.60;;;6.90;99.90;;;;;;4147744;28;20180;-88
2022/12/01 08:32:32;;;;;;;78.63;32.50;;;7.00;99.90;;;;;;4164153;28;20185;-87
2022/12/01 08:34:40;;;;;;;86.50;33.43;;;7.10;99.90;;;;;;4180684;28;20779;-88
2022/12/01 08:36:40;;;;;;;85.00;32.50;;;7.00;99.90;;;;;;4148110;28;20208;-88
2022/12/01 08:38:46;;;;;;;89.87;34.70;;;7.00;99.90;;;;;;4147903;28;20515;-88
2022/12/01 08:40:46;;;;;;;83.83;33.03;;;7.20;99.90;;;;;;4166036;28;20172;-89
2022/12/01 08:42:47;;;;;;;95.33;34.97;;;7.20;99.90;;;;;;4167129;28;20218;-88
2022/12/01 08:44:48;;;;;;;85.93;33.43;;;7.20;99.90;;;;;;4150783;28;20219;-88
2022/12/01 08:46:48;;;;;;;95.10;37.53;;;7.20;99.90;;;;;;4167241;28;20173;-88
2022/12/01 08:48:49;;;;;;;90.70;36.83;;;7.20;99.90;;;;;;4167073;28;20168;-88
2022/12/01 08:50:50;;;;;;;105.10;42.10;;;7.20;99.90;;;;;;4151117;28;20211;-91
2022/12/01 08:52:51;;;;;;;98.50;39.60;;;7.10;99.90;;;;;;4167097;28;20183;-88
2022/12/01 08:54:52;;;;;;;90.70;34.80;;;7.20;99.90;;;;;;4150487;28;20193;-88
2022/12/01 08:56:52;;;;;;;97.43;37.43;;;7.20;99.90;;;;;;4167023;28;20188;-88
2022/12/01 08:58:54;;;;;;;99.40;40.47;;;7.20;99.90;;;;;;4166806;28;20621;-90
2022/12/01 09:01:03;;;;;;;92.33;36.50;;;7.10;99.90;;;;;;4150627;28;20205;-91
2022/12/01 09:03:03;;;;;;;100.37;39.83;;;7.20;99.90;;;;;;4150519;28;20215;-88
2022/12/01 09:05:04;;;;;;;97.93;37.27;;;7.30;99.90;;;;;;4150496;28;20296;-88
2022/12/01 09:07:09;;;;;;;100.10;39.50;;;7.20;99.90;;;;;;4166670;28;20235;-88
2022/12/01 09:09:13;;;;;;;102.00;37.87;;;7.20;99.90;;;;;;4150549;28;20209;-87
2022/12/01 09:11:16;;;;;;;100.20;38.03;;;7.20;99.90;;;;;;4150225;28;20190;-92
2022/12/01 09:13:17;;;;;;;101.37;39.93;;;7.20;99.90;;;;;;4150461;28;20176;-88
2022/12/01 09:15:17;;;;;;;103.97;40.17;;;7.30;99.90;;;;;;4166775;28;20282;-90
2022/12/01 09:17:18;;;;;;;97.37;39.40;;;7.20;99.90;;;;;;4166901;28;20199;-88
2022/12/01 09:19:20;;;;;;;98.63;39.30;;;7.20;99.90;;;;;;4150455;28;20203;-90
2022/12/01 09:21:23;;;;;;;103.87;40.23;;;7.10;99.90;;;;;;4183201;28;20175;-88
2022/12/01 09:23:25;;;;;;;100.13;38.90;;;7.00;99.90;;;;;;4150423;28;20665;-90
2022/12/01 09:25:25;;;;;;;102.93;40.37;;;6.90;99.90;;;;;;4150202;28;20192;-88
2022/12/01 09:27:26;;;;;;;103.70;41.03;;;6.90;99.90;;;;;;4166778;28;20176;-88
2022/12/01 09:29:26;;;;;;;100.10;41.17;;;7.00;99.90;;;;;;4166384;28;20179;-91
2022/12/01 09:31:28;;;;;;;101.93;39.90;;;7.00;99.90;;;;;;4150202;28;20622;-88
2022/12/01 09:33:28;;;;;;;101.37;39.63;;;7.00;99.90;;;;;;4166527;28;20175;-90
2022/12/01 09:35:30;;;;;;;99.43;40.43;;;7.10;99.90;;;;;;4150221;28;20565;-88
2022/12/01 09:37:31;;;;;;;93.50;38.33;;;7.10;99.90;;;;;;4150218;28;20667;-88
2022/12/01 09:39:31;;;;;;;97.30;39.53;;;7.00;99.90;;;;;;4150279;28;20184;-92
2022/12/01 09:41:45;;;;;;;94.07;38.43;;;6.90;99.90;;;;;;4166430;28;20212;-90
2022/12/01 09:43:55;;;;;;;103.47;39.63;;;6.80;99.90;;;;;;4150451;28;20180;-90
2022/12/01 09:46:01;;;;;;;96.43;37.27;;;6.90;99.90;;;;;;4166682;28;20172;-89
2022/12/01 09:48:04;;;;;;;99.17;39.47;;;6.90;99.90;;;;;;4149984;28;20648;-90
2022/12/01 09:50:20;;;;;;;95.27;38.70;;;7.00;99.90;;;;;;4149808;28;20173;-91
2022/12/01 09:52:24;;;;;;;91.37;36.53;;;7.00;99.90;;;;;;4166076;28;20176;-91
2022/12/01 09:54:24;;;;;;;98.50;38.73;;;7.10;99.90;;;;;;4182775;28;20214;-87
2022/12/01 09:56:31;;;;;;;93.23;37.57;;;7.10;99.90;;;;;;4166289;28;20176;-88
2022/12/01 09:58:32;;;;;;;83.90;34.93;;;7.20;99.90;;;;;;4149730;28;20267;-88
2022/12/01 10:00:41;;;;;;;93.70;37.77;;;7.20;99.90;;;;;;4166160;28;20194;-92
2022/12/01 10:02:47;;;;;;;93.63;37.60;;;7.30;99.90;;;;;;4166106;28;20347;-88
2022/12/01 10:04:50;;;;;;;85.37;36.50;;;7.40;99.90;;;;;;4166310;28;20246;-88
2022/12/01 10:07:22;;;;;;;91.20;35.67;;;7.40;99.90;;;;;;4166053;28;20331;-91
2022/12/01 10:09:47;;;;;;;85.03;35.97;;;7.30;99.90;;;;;;4155382;28;20188;-88
2022/12/01 10:11:51;;;;;;;85.60;33.80;;;7.40;99.90;;;;;;4166218;28;20183;-88
2022/12/01 10:13:52;;;;;;;87.20;34.43;;;7.40;99.90;;;;;;4165906;28;20172;-87
2022/12/01 10:15:53;;;;;;;89.40;36.20;;;7.40;99.90;;;;;;4165984;28;20267;-91
2022/12/01 10:18:11;;;;;;;84.00;36.23;;;7.40;99.90;;;;;;4165986;28;20192;-91
2022/12/01 10:20:23;;;;;;;79.33;32.70;;;7.50;99.90;;;;;;4149366;28;20184;-88
2022/12/01 10:22:29;;;;;;;79.00;32.37;;;7.60;99.90;;;;;;4182212;28;20316;-91
2022/12/01 10:24:39;;;;;;;84.73;34.23;;;7.70;99.90;;;;;;4149408;28;20657;-87
2022/12/01 10:26:57;;;;;;;82.13;33.93;;;7.60;99.90;;;;;;4149627;28;20184;-88
2022/12/01 10:29:11;;;;;;;76.63;31.47;;;7.50;99.90;;;;;;4165644;28;20182;-88
2022/12/01 10:31:23;;;;;;;73.63;33.17;;;7.50;99.90;;;;;;4165637;28;20176;-88
2022/12/01 10:33:35;;;;;;;75.33;32.30;;;7.50;99.90;;;;;;4165604;28;20184;-88
2022/12/01 10:35:38;;;;;;;76.80;33.60;;;7.40;99.90;;;;;;4165703;28;20171;-88
2022/12/01 10:37:39;;;;;;;74.03;33.13;;;7.30;99.90;;;;;;4149404;28;20177;-88
2022/12/01 10:39:43;;;;;;;76.10;32.67;;;7.40;99.90;;;;;;4149141;28;20180;-87
2022/12/01 10:41:46;;;;;;;72.60;32.77;;;7.40;99.90;;;;;;4165471;28;20291;-88
2022/12/01 10:43:50;;;;;;;72.20;31.70;;;7.40;99.90;;;;;;4148967;28;20180;-88
2022/12/01 10:45:53;;;;;;;75.63;32.80;;;7.40;99.90;;;;;;4148985;28;20169;-91